sensor_id;sensor_type;location;lat;lon;timestamp;P1;durP1;ratioP1;P2;durP2;ratioP2
17451;SDS011;8843;48.838;9.324;2023-07-20T00:00:04;4.23;;;1.93;;
17451;SDS011;8843;48.838;9.324;2023-07-20T00:02:32;2.17;;;1.60;;
17451;SDS011;8843;48.838;9.324;2023-07-20T00:04:59;3.80;;;2.13;;
17451;SDS011;8843;48.838;9.324;2023-07-20T00:07:27;2.63;;;1.80;;
17451;SDS011;8843;48.838;9.324;2023-07-20T00:09:54;2.53;;;1.83;;
17451;SDS011;8843;48.838;9.324;2023-07-20T00:12:22;5.00;;;2.23;;
17451;SDS011;8843;48.838;9.324;2023-07-20T00:14:49;2.20;;;1.63;;
17451;SDS011;8843;48.838;9.324;2023-07-20T00:17:18;2.27;;;2.03;;
17451;SDS011;8843;48.838;9.324;2023-07-20T00:19:45;4.80;;;2.27;;
17451;SDS011;8843;48.838;9.324;2023-07-20T00:22:12;1.77;;;1.67;;
17451;SDS011;8843;48.838;9.324;2023-07-20T00:24:40;2.20;;;2.00;;
17451;SDS011;8843;48.838;9.324;2023-07-20T00:27:07;4.93;;;1.90;;
17451;SDS011;8843;48.838;9.324;2023-07-20T00:29:34;7.57;;;2.00;;
17451;SDS011;8843;48.838;9.324;2023-07-20T00:32:01;3.33;;;2.03;;
17451;SDS011;8843;48.838;9.324;2023-07-20T00:34:30;2.87;;;1.80;;
17451;SDS011;8843;48.838;9.324;2023-07-20T00:36:57;2.40;;;1.90;;
17451;SDS011;8843;48.838;9.324;2023-07-20T00:39:24;2.93;;;2.20;;
17451;SDS011;8843;48.838;9.324;2023-07-20T00:41:52;2.10;;;1.90;;
17451;SDS011;8843;48.838;9.324;2023-07-20T00:44:19;4.27;;;1.93;;
17451;SDS011;8843;48.838;9.324;2023-07-20T00:46:46;4.87;;;1.93;;
17451;SDS011;8843;48.838;9.324;2023-07-20T00:49:13;3.50;;;2.20;;
17451;SDS011;8843;48.838;9.324;2023-07-20T00:51:40;4.03;;;2.13;;
17451;SDS011;8843;48.838;9.324;2023-07-20T00:54:08;2.40;;;2.07;;
17451;SDS011;8843;48.838;9.324;2023-07-20T00:56:35;3.63;;;2.07;;
17451;SDS011;8843;48.838;9.324;2023-07-20T00:59:04;2.17;;;1.90;;
17451;SDS011;8843;48.838;9.324;2023-07-20T01:01:31;2.47;;;1.97;;
17451;SDS011;8843;48.838;9.324;2023-07-20T01:03:58;4.17;;;1.90;;
17451;SDS011;8843;48.838;9.324;2023-07-20T01:06:27;4.67;;;2.03;;
17451;SDS011;8843;48.838;9.324;2023-07-20T01:09:01;2.47;;;2.00;;
17451;SDS011;8843;48.838;9.324;2023-07-20T01:11:35;2.70;;;1.87;;
17451;SDS011;8843;48.838;9.324;2023-07-20T01:14:06;2.73;;;1.90;;
17451;SDS011;8843;48.838;9.324;2023-07-20T01:16:34;2.97;;;1.70;;
17451;SDS011;8843;48.838;9.324;2023-07-20T01:19:00;2.60;;;1.60;;
17451;SDS011;8843;48.838;9.324;2023-07-20T01:21:30;2.47;;;1.50;;
17451;SDS011;8843;48.838;9.324;2023-07-20T01:24:05;3.07;;;2.10;;
17451;SDS011;8843;48.838;9.324;2023-07-20T01:27:09;2.20;;;1.73;;
17451;SDS011;8843;48.838;9.324;2023-07-20T01:29:59;2.93;;;1.80;;
17451;SDS011;8843;48.838;9.324;2023-07-20T01:32:41;2.80;;;1.70;;
17451;SDS011;8843;48.838;9.324;2023-07-20T01:35:10;3.63;;;1.80;;
17451;SDS011;8843;48.838;9.324;2023-07-20T01:37:40;2.53;;;1.80;;
17451;SDS011;8843;48.838;9.324;2023-07-20T01:40:10;3.97;;;1.80;;
17451;SDS011;8843;48.838;9.324;2023-07-20T01:42:38;2.23;;;1.67;;
17451;SDS011;8843;48.838;9.324;2023-07-20T01:45:09;2.23;;;1.90;;
17451;SDS011;8843;48.838;9.324;2023-07-20T01:47:36;2.20;;;1.73;;
17451;SDS011;8843;48.838;9.324;2023-07-20T01:50:05;2.97;;;2.17;;
17451;SDS011;8843;48.838;9.324;2023-07-20T01:52:33;1.63;;;1.53;;
17451;SDS011;8843;48.838;9.324;2023-07-20T01:55:00;2.17;;;1.97;;
17451;SDS011;8843;48.838;9.324;2023-07-20T01:57:27;2.00;;;1.77;;
17451;SDS011;8843;48.838;9.324;2023-07-20T01:59:53;2.23;;;1.70;;
17451;SDS011;8843;48.838;9.324;2023-07-20T02:02:20;3.83;;;1.87;;
17451;SDS011;8843;48.838;9.324;2023-07-20T02:04:49;3.10;;;1.70;;
17451;SDS011;8843;48.838;9.324;2023-07-20T02:07:17;4.13;;;2.10;;
17451;SDS011;8843;48.838;9.324;2023-07-20T02:09:44;3.03;;;1.70;;
17451;SDS011;8843;48.838;9.324;2023-07-20T02:12:11;1.50;;;1.40;;
17451;SDS011;8843;48.838;9.324;2023-07-20T02:14:37;3.30;;;2.03;;
17451;SDS011;8843;48.838;9.324;2023-07-20T02:17:04;1.90;;;1.60;;
17451;SDS011;8843;48.838;9.324;2023-07-20T02:19:31;5.10;;;2.13;;
17451;SDS011;8843;48.838;9.324;2023-07-20T02:21:59;3.10;;;1.63;;
17451;SDS011;8843;48.838;9.324;2023-07-20T02:24:27;2.77;;;1.60;;
17451;SDS011;8843;48.838;9.324;2023-07-20T02:26:54;2.93;;;2.10;;
17451;SDS011;8843;48.838;9.324;2023-07-20T02:29:20;2.17;;;1.83;;
17451;SDS011;8843;48.838;9.324;2023-07-20T02:31:48;2.90;;;1.50;;
17451;SDS011;8843;48.838;9.324;2023-07-20T02:34:15;2.20;;;1.87;;
17451;SDS011;8843;48.838;9.324;2023-07-20T02:36:42;2.50;;;1.60;;
17451;SDS011;8843;48.838;9.324;2023-07-20T02:39:09;1.83;;;1.47;;
17451;SDS011;8843;48.838;9.324;2023-07-20T02:41:37;3.17;;;1.80;;
17451;SDS011;8843;48.838;9.324;2023-07-20T02:44:04;3.10;;;1.90;;
17451;SDS011;8843;48.838;9.324;2023-07-20T02:46:31;3.20;;;1.90;;
17451;SDS011;8843;48.838;9.324;2023-07-20T02:48:57;2.13;;;1.90;;
17451;SDS011;8843;48.838;9.324;2023-07-20T02:51:24;1.70;;;1.60;;
17451;SDS011;8843;48.838;9.324;2023-07-20T02:53:51;4.13;;;2.30;;
17451;SDS011;8843;48.838;9.324;2023-07-20T02:56:18;3.87;;;2.27;;
17451;SDS011;8843;48.838;9.324;2023-07-20T02:58:46;2.07;;;1.87;;
17451;SDS011;8843;48.838;9.324;2023-07-20T03:01:13;2.47;;;1.80;;
17451;SDS011;8843;48.838;9.324;2023-07-20T03:03:40;2.37;;;2.03;;
17451;SDS011;8843;48.838;9.324;2023-07-20T03:06:10;4.00;;;2.00;;
17451;SDS011;8843;48.838;9.324;2023-07-20T03:08:37;2.50;;;1.80;;
17451;SDS011;8843;48.838;9.324;2023-07-20T03:11:04;2.57;;;1.97;;
17451;SDS011;8843;48.838;9.324;2023-07-20T03:13:31;2.10;;;1.80;;
17451;SDS011;8843;48.838;9.324;2023-07-20T03:15:59;4.90;;;2.20;;
17451;SDS011;8843;48.838;9.324;2023-07-20T03:18:26;3.17;;;1.77;;
17451;SDS011;8843;48.838;9.324;2023-07-20T03:20:53;2.87;;;1.80;;
17451;SDS011;8843;48.838;9.324;2023-07-20T03:23:20;2.57;;;1.77;;
17451;SDS011;8843;48.838;9.324;2023-07-20T03:25:47;3.00;;;1.87;;
17451;SDS011;8843;48.838;9.324;2023-07-20T03:28:14;2.00;;;1.80;;
17451;SDS011;8843;48.838;9.324;2023-07-20T03:30:41;2.07;;;1.87;;
17451;SDS011;8843;48.838;9.324;2023-07-20T03:33:09;3.47;;;1.80;;
17451;SDS011;8843;48.838;9.324;2023-07-20T03:35:36;5.27;;;2.40;;
17451;SDS011;8843;48.838;9.324;2023-07-20T03:38:03;2.10;;;1.87;;
17451;SDS011;8843;48.838;9.324;2023-07-20T03:40:30;3.23;;;1.87;;
17451;SDS011;8843;48.838;9.324;2023-07-20T03:42:57;3.67;;;1.80;;
17451;SDS011;8843;48.838;9.324;2023-07-20T03:45:24;2.40;;;2.00;;
17451;SDS011;8843;48.838;9.324;2023-07-20T03:47:51;4.60;;;2.03;;
17451;SDS011;8843;48.838;9.324;2023-07-20T03:50:19;2.47;;;2.10;;
17451;SDS011;8843;48.838;9.324;2023-07-20T03:52:46;3.47;;;1.93;;
17451;SDS011;8843;48.838;9.324;2023-07-20T03:55:13;3.20;;;1.80;;
17451;SDS011;8843;48.838;9.324;2023-07-20T03:57:40;1.87;;;1.70;;
17451;SDS011;8843;48.838;9.324;2023-07-20T04:00:08;4.23;;;1.70;;
17451;SDS011;8843;48.838;9.324;2023-07-20T04:02:37;5.17;;;2.00;;
17451;SDS011;8843;48.838;9.324;2023-07-20T04:05:04;2.43;;;2.00;;
17451;SDS011;8843;48.838;9.324;2023-07-20T04:07:32;4.47;;;2.00;;
17451;SDS011;8843;48.838;9.324;2023-07-20T04:09:59;2.83;;;2.00;;
17451;SDS011;8843;48.838;9.324;2023-07-20T04:12:26;2.43;;;1.90;;
17451;SDS011;8843;48.838;9.324;2023-07-20T04:14:53;2.53;;;2.10;;
17451;SDS011;8843;48.838;9.324;2023-07-20T04:17:20;3.10;;;1.97;;
17451;SDS011;8843;48.838;9.324;2023-07-20T04:19:47;3.30;;;2.30;;
17451;SDS011;8843;48.838;9.324;2023-07-20T04:22:14;3.03;;;1.70;;
17451;SDS011;8843;48.838;9.324;2023-07-20T04:24:42;2.93;;;2.13;;
17451;SDS011;8843;48.838;9.324;2023-07-20T04:27:09;1.87;;;1.77;;
17451;SDS011;8843;48.838;9.324;2023-07-20T04:29:36;2.17;;;1.80;;
17451;SDS011;8843;48.838;9.324;2023-07-20T04:32:03;3.70;;;2.30;;
17451;SDS011;8843;48.838;9.324;2023-07-20T04:34:30;2.67;;;1.80;;
17451;SDS011;8843;48.838;9.324;2023-07-20T04:36:57;3.30;;;2.10;;
17451;SDS011;8843;48.838;9.324;2023-07-20T04:39:24;3.57;;;2.13;;
17451;SDS011;8843;48.838;9.324;2023-07-20T04:41:52;4.67;;;2.40;;
17451;SDS011;8843;48.838;9.324;2023-07-20T04:44:19;2.83;;;1.80;;
17451;SDS011;8843;48.838;9.324;2023-07-20T04:46:46;3.40;;;2.20;;
17451;SDS011;8843;48.838;9.324;2023-07-20T04:49:13;3.40;;;1.90;;
17451;SDS011;8843;48.838;9.324;2023-07-20T04:51:40;2.70;;;2.30;;
17451;SDS011;8843;48.838;9.324;2023-07-20T04:54:07;2.87;;;2.10;;
17451;SDS011;8843;48.838;9.324;2023-07-20T04:56:34;2.60;;;2.00;;
17451;SDS011;8843;48.838;9.324;2023-07-20T04:59:02;3.70;;;2.63;;
17451;SDS011;8843;48.838;9.324;2023-07-20T05:01:29;3.00;;;2.10;;
17451;SDS011;8843;48.838;9.324;2023-07-20T05:03:56;3.77;;;2.20;;
17451;SDS011;8843;48.838;9.324;2023-07-20T05:06:22;3.77;;;2.00;;
17451;SDS011;8843;48.838;9.324;2023-07-20T05:08:49;2.50;;;2.07;;
17451;SDS011;8843;48.838;9.324;2023-07-20T05:11:16;3.47;;;2.30;;
17451;SDS011;8843;48.838;9.324;2023-07-20T05:13:43;4.13;;;2.00;;
17451;SDS011;8843;48.838;9.324;2023-07-20T05:16:11;3.23;;;1.90;;
17451;SDS011;8843;48.838;9.324;2023-07-20T05:18:38;3.67;;;2.13;;
17451;SDS011;8843;48.838;9.324;2023-07-20T05:21:05;5.07;;;2.13;;
17451;SDS011;8843;48.838;9.324;2023-07-20T05:23:32;3.90;;;2.30;;
17451;SDS011;8843;48.838;9.324;2023-07-20T05:25:59;2.30;;;1.90;;
17451;SDS011;8843;48.838;9.324;2023-07-20T05:28:26;2.40;;;1.87;;
17451;SDS011;8843;48.838;9.324;2023-07-20T05:30:53;5.40;;;2.30;;
17451;SDS011;8843;48.838;9.324;2023-07-20T05:33:22;4.70;;;2.50;;
17451;SDS011;8843;48.838;9.324;2023-07-20T05:35:48;3.80;;;2.20;;
17451;SDS011;8843;48.838;9.324;2023-07-20T05:38:15;4.47;;;2.50;;
17451;SDS011;8843;48.838;9.324;2023-07-20T05:40:44;3.47;;;2.27;;
17451;SDS011;8843;48.838;9.324;2023-07-20T05:43:12;4.90;;;2.40;;
17451;SDS011;8843;48.838;9.324;2023-07-20T05:45:41;3.53;;;2.43;;
17451;SDS011;8843;48.838;9.324;2023-07-20T05:48:08;4.47;;;2.40;;
17451;SDS011;8843;48.838;9.324;2023-07-20T05:50:37;6.60;;;2.70;;
17451;SDS011;8843;48.838;9.324;2023-07-20T05:53:04;6.13;;;2.73;;
17451;SDS011;8843;48.838;9.324;2023-07-20T05:55:31;6.33;;;2.57;;
17451;SDS011;8843;48.838;9.324;2023-07-20T05:57:58;3.67;;;2.00;;
17451;SDS011;8843;48.838;9.324;2023-07-20T06:00:25;4.70;;;2.30;;
17451;SDS011;8843;48.838;9.324;2023-07-20T06:02:52;3.27;;;2.30;;
17451;SDS011;8843;48.838;9.324;2023-07-20T06:05:20;3.07;;;2.13;;
17451;SDS011;8843;48.838;9.324;2023-07-20T06:07:49;5.00;;;1.87;;
17451;SDS011;8843;48.838;9.324;2023-07-20T06:10:16;3.80;;;2.40;;
17451;SDS011;8843;48.838;9.324;2023-07-20T06:12:43;3.30;;;2.20;;
17451;SDS011;8843;48.838;9.324;2023-07-20T06:15:24;3.77;;;2.30;;
17451;SDS011;8843;48.838;9.324;2023-07-20T06:17:51;2.90;;;1.87;;
17451;SDS011;8843;48.838;9.324;2023-07-20T06:20:19;4.63;;;2.10;;
17451;SDS011;8843;48.838;9.324;2023-07-20T06:22:46;4.83;;;2.53;;
17451;SDS011;8843;48.838;9.324;2023-07-20T06:25:14;2.87;;;2.33;;
17451;SDS011;8843;48.838;9.324;2023-07-20T06:27:42;3.23;;;2.00;;
17451;SDS011;8843;48.838;9.324;2023-07-20T06:30:09;7.57;;;2.07;;
17451;SDS011;8843;48.838;9.324;2023-07-20T06:32:37;2.63;;;2.00;;
17451;SDS011;8843;48.838;9.324;2023-07-20T06:35:04;2.27;;;2.00;;
17451;SDS011;8843;48.838;9.324;2023-07-20T06:37:32;2.90;;;2.10;;
17451;SDS011;8843;48.838;9.324;2023-07-20T06:39:59;3.27;;;1.70;;
17451;SDS011;8843;48.838;9.324;2023-07-20T06:42:27;2.67;;;2.30;;
17451;SDS011;8843;48.838;9.324;2023-07-20T06:44:54;3.33;;;1.90;;
17451;SDS011;8843;48.838;9.324;2023-07-20T06:47:21;2.77;;;1.90;;
17451;SDS011;8843;48.838;9.324;2023-07-20T06:49:48;5.30;;;2.20;;
17451;SDS011;8843;48.838;9.324;2023-07-20T06:52:15;4.80;;;1.80;;
17451;SDS011;8843;48.838;9.324;2023-07-20T06:54:42;3.67;;;2.07;;
17451;SDS011;8843;48.838;9.324;2023-07-20T06:57:09;4.37;;;1.80;;
17451;SDS011;8843;48.838;9.324;2023-07-20T06:59:38;4.30;;;2.20;;
17451;SDS011;8843;48.838;9.324;2023-07-20T07:02:05;3.97;;;1.70;;
17451;SDS011;8843;48.838;9.324;2023-07-20T07:04:32;3.80;;;1.70;;
17451;SDS011;8843;48.838;9.324;2023-07-20T07:06:59;2.70;;;2.00;;
17451;SDS011;8843;48.838;9.324;2023-07-20T07:09:26;3.07;;;2.00;;
17451;SDS011;8843;48.838;9.324;2023-07-20T07:11:52;2.10;;;1.90;;
17451;SDS011;8843;48.838;9.324;2023-07-20T07:14:20;2.80;;;1.80;;
17451;SDS011;8843;48.838;9.324;2023-07-20T07:16:48;3.07;;;2.50;;
17451;SDS011;8843;48.838;9.324;2023-07-20T07:19:15;3.27;;;2.13;;
17451;SDS011;8843;48.838;9.324;2023-07-20T07:21:42;4.13;;;2.23;;
17451;SDS011;8843;48.838;9.324;2023-07-20T07:24:09;2.37;;;1.80;;
17451;SDS011;8843;48.838;9.324;2023-07-20T07:26:36;2.10;;;1.90;;
17451;SDS011;8843;48.838;9.324;2023-07-20T07:29:03;2.27;;;1.87;;
17451;SDS011;8843;48.838;9.324;2023-07-20T07:31:30;4.03;;;1.77;;
17451;SDS011;8843;48.838;9.324;2023-07-20T07:34:01;3.70;;;2.03;;
17451;SDS011;8843;48.838;9.324;2023-07-20T07:36:28;2.77;;;1.87;;
17451;SDS011;8843;48.838;9.324;2023-07-20T07:38:55;5.10;;;1.80;;
17451;SDS011;8843;48.838;9.324;2023-07-20T07:41:22;2.27;;;2.07;;
17451;SDS011;8843;48.838;9.324;2023-07-20T07:43:49;2.23;;;1.93;;
17451;SDS011;8843;48.838;9.324;2023-07-20T07:46:16;3.63;;;1.90;;
17451;SDS011;8843;48.838;9.324;2023-07-20T07:48:42;2.57;;;1.80;;
17451;SDS011;8843;48.838;9.324;2023-07-20T07:51:11;3.70;;;1.87;;
17451;SDS011;8843;48.838;9.324;2023-07-20T07:53:38;3.30;;;1.90;;
17451;SDS011;8843;48.838;9.324;2023-07-20T07:56:06;4.77;;;1.93;;
17451;SDS011;8843;48.838;9.324;2023-07-20T07:58:33;3.60;;;2.10;;
17451;SDS011;8843;48.838;9.324;2023-07-20T08:01:00;3.97;;;1.90;;
17451;SDS011;8843;48.838;9.324;2023-07-20T08:03:27;1.97;;;1.80;;
17451;SDS011;8843;48.838;9.324;2023-07-20T08:05:54;1.80;;;1.60;;
17451;SDS011;8843;48.838;9.324;2023-07-20T08:08:22;3.13;;;1.80;;
17451;SDS011;8843;48.838;9.324;2023-07-20T08:10:50;2.10;;;1.70;;
17451;SDS011;8843;48.838;9.324;2023-07-20T08:13:20;3.13;;;1.93;;
17451;SDS011;8843;48.838;9.324;2023-07-20T08:15:49;6.27;;;1.97;;
17451;SDS011;8843;48.838;9.324;2023-07-20T08:18:17;2.90;;;1.90;;
17451;SDS011;8843;48.838;9.324;2023-07-20T08:20:44;2.53;;;1.67;;
17451;SDS011;8843;48.838;9.324;2023-07-20T08:23:11;3.73;;;2.57;;
17451;SDS011;8843;48.838;9.324;2023-07-20T08:25:39;2.23;;;1.80;;
17451;SDS011;8843;48.838;9.324;2023-07-20T08:28:09;3.70;;;2.20;;
17451;SDS011;8843;48.838;9.324;2023-07-20T08:30:40;3.87;;;2.20;;
17451;SDS011;8843;48.838;9.324;2023-07-20T08:33:08;3.10;;;1.80;;
17451;SDS011;8843;48.838;9.324;2023-07-20T08:35:35;4.40;;;2.00;;
17451;SDS011;8843;48.838;9.324;2023-07-20T08:38:02;3.43;;;1.83;;
17451;SDS011;8843;48.838;9.324;2023-07-20T08:40:30;2.73;;;2.20;;
17451;SDS011;8843;48.838;9.324;2023-07-20T08:42:59;2.30;;;1.90;;
17451;SDS011;8843;48.838;9.324;2023-07-20T08:45:27;2.97;;;1.80;;
17451;SDS011;8843;48.838;9.324;2023-07-20T08:47:55;4.37;;;2.30;;
17451;SDS011;8843;48.838;9.324;2023-07-20T08:50:24;3.37;;;2.03;;
17451;SDS011;8843;48.838;9.324;2023-07-20T08:52:52;4.20;;;2.20;;
17451;SDS011;8843;48.838;9.324;2023-07-20T08:55:20;2.90;;;1.77;;
17451;SDS011;8843;48.838;9.324;2023-07-20T08:57:48;4.83;;;2.13;;
17451;SDS011;8843;48.838;9.324;2023-07-20T09:00:18;4.87;;;1.70;;
17451;SDS011;8843;48.838;9.324;2023-07-20T09:02:47;3.33;;;1.43;;
17451;SDS011;8843;48.838;9.324;2023-07-20T09:05:16;3.80;;;1.83;;
17451;SDS011;8843;48.838;9.324;2023-07-20T09:07:43;2.50;;;1.90;;
17451;SDS011;8843;48.838;9.324;2023-07-20T09:10:11;4.50;;;1.60;;
17451;SDS011;8843;48.838;9.324;2023-07-20T09:12:38;2.20;;;1.97;;
17451;SDS011;8843;48.838;9.324;2023-07-20T09:15:21;2.87;;;1.87;;
17451;SDS011;8843;48.838;9.324;2023-07-20T09:17:49;2.97;;;1.97;;
17451;SDS011;8843;48.838;9.324;2023-07-20T09:20:19;3.90;;;1.70;;
17451;SDS011;8843;48.838;9.324;2023-07-20T09:22:46;3.03;;;1.80;;
17451;SDS011;8843;48.838;9.324;2023-07-20T09:25:15;2.27;;;1.70;;
17451;SDS011;8843;48.838;9.324;2023-07-20T09:27:43;2.40;;;1.80;;
17451;SDS011;8843;48.838;9.324;2023-07-20T09:30:11;3.47;;;1.83;;
17451;SDS011;8843;48.838;9.324;2023-07-20T09:32:42;2.03;;;1.77;;
17451;SDS011;8843;48.838;9.324;2023-07-20T09:35:13;9.60;;;1.80;;
17451;SDS011;8843;48.838;9.324;2023-07-20T09:37:45;3.53;;;1.67;;
17451;SDS011;8843;48.838;9.324;2023-07-20T09:40:14;3.60;;;1.80;;
17451;SDS011;8843;48.838;9.324;2023-07-20T09:42:43;2.13;;;1.93;;
17451;SDS011;8843;48.838;9.324;2023-07-20T09:45:10;2.80;;;1.83;;
17451;SDS011;8843;48.838;9.324;2023-07-20T09:47:37;3.87;;;1.90;;
17451;SDS011;8843;48.838;9.324;2023-07-20T09:50:07;1.70;;;1.60;;
17451;SDS011;8843;48.838;9.324;2023-07-20T09:52:38;2.53;;;1.90;;
17451;SDS011;8843;48.838;9.324;2023-07-20T09:55:07;2.93;;;1.70;;
17451;SDS011;8843;48.838;9.324;2023-07-20T09:57:34;2.40;;;1.77;;
17451;SDS011;8843;48.838;9.324;2023-07-20T10:00:02;2.50;;;1.53;;
17451;SDS011;8843;48.838;9.324;2023-07-20T10:02:39;2.57;;;1.83;;
17451;SDS011;8843;48.838;9.324;2023-07-20T10:05:11;3.77;;;1.70;;
17451;SDS011;8843;48.838;9.324;2023-07-20T10:07:40;1.50;;;1.40;;
17451;SDS011;8843;48.838;9.324;2023-07-20T10:10:11;1.87;;;1.70;;
17451;SDS011;8843;48.838;9.324;2023-07-20T10:12:39;2.33;;;1.50;;
17451;SDS011;8843;48.838;9.324;2023-07-20T10:15:10;1.83;;;1.40;;
17451;SDS011;8843;48.838;9.324;2023-07-20T10:17:40;1.30;;;1.20;;
17451;SDS011;8843;48.838;9.324;2023-07-20T10:20:16;1.47;;;1.37;;
17451;SDS011;8843;48.838;9.324;2023-07-20T10:22:45;1.70;;;1.30;;
17451;SDS011;8843;48.838;9.324;2023-07-20T10:25:15;2.40;;;1.40;;
17451;SDS011;8843;48.838;9.324;2023-07-20T10:27:43;3.40;;;1.50;;
17451;SDS011;8843;48.838;9.324;2023-07-20T10:30:11;2.50;;;1.50;;
17451;SDS011;8843;48.838;9.324;2023-07-20T10:32:39;1.70;;;1.60;;
17451;SDS011;8843;48.838;9.324;2023-07-20T10:35:12;1.43;;;1.30;;
17451;SDS011;8843;48.838;9.324;2023-07-20T10:37:51;3.33;;;1.30;;
17451;SDS011;8843;48.838;9.324;2023-07-20T10:40:28;1.20;;;1.10;;
17451;SDS011;8843;48.838;9.324;2023-07-20T10:42:58;2.93;;;1.37;;
17451;SDS011;8843;48.838;9.324;2023-07-20T10:45:36;2.00;;;1.60;;
17451;SDS011;8843;48.838;9.324;2023-07-20T10:48:06;3.00;;;1.50;;
17451;SDS011;8843;48.838;9.324;2023-07-20T10:50:39;1.43;;;1.33;;
17451;SDS011;8843;48.838;9.324;2023-07-20T10:53:11;2.93;;;1.73;;
17451;SDS011;8843;48.838;9.324;2023-07-20T10:55:39;4.63;;;1.10;;
17451;SDS011;8843;48.838;9.324;2023-07-20T10:58:07;1.70;;;1.50;;
17451;SDS011;8843;48.838;9.324;2023-07-20T11:00:36;1.90;;;1.60;;
17451;SDS011;8843;48.838;9.324;2023-07-20T11:03:03;1.73;;;1.43;;
17451;SDS011;8843;48.838;9.324;2023-07-20T11:05:37;2.53;;;1.53;;
17451;SDS011;8843;48.838;9.324;2023-07-20T11:08:06;1.93;;;1.27;;
17451;SDS011;8843;48.838;9.324;2023-07-20T11:10:37;3.20;;;1.30;;
17451;SDS011;8843;48.838;9.324;2023-07-20T11:13:17;2.00;;;1.30;;
17451;SDS011;8843;48.838;9.324;2023-07-20T11:16:03;2.00;;;1.30;;
17451;SDS011;8843;48.838;9.324;2023-07-20T11:18:32;3.37;;;1.40;;
17451;SDS011;8843;48.838;9.324;2023-07-20T11:21:06;1.80;;;1.27;;
17451;SDS011;8843;48.838;9.324;2023-07-20T11:23:39;1.37;;;1.27;;
17451;SDS011;8843;48.838;9.324;2023-07-20T11:26:06;1.80;;;1.70;;
17451;SDS011;8843;48.838;9.324;2023-07-20T11:28:33;1.40;;;1.20;;
17451;SDS011;8843;48.838;9.324;2023-07-20T11:31:01;3.17;;;1.47;;
17451;SDS011;8843;48.838;9.324;2023-07-20T11:33:27;2.20;;;1.37;;
17451;SDS011;8843;48.838;9.324;2023-07-20T11:35:54;3.00;;;1.20;;
17451;SDS011;8843;48.838;9.324;2023-07-20T11:38:21;2.10;;;1.50;;
17451;SDS011;8843;48.838;9.324;2023-07-20T11:40:51;2.00;;;1.60;;
17451;SDS011;8843;48.838;9.324;2023-07-20T11:43:18;3.40;;;1.37;;
17451;SDS011;8843;48.838;9.324;2023-07-20T11:45:48;1.20;;;1.10;;
17451;SDS011;8843;48.838;9.324;2023-07-20T11:48:15;2.57;;;1.63;;
17451;SDS011;8843;48.838;9.324;2023-07-20T11:50:42;2.27;;;1.40;;
17451;SDS011;8843;48.838;9.324;2023-07-20T11:53:09;1.40;;;1.30;;
17451;SDS011;8843;48.838;9.324;2023-07-20T11:55:36;2.90;;;1.30;;
17451;SDS011;8843;48.838;9.324;2023-07-20T11:58:07;1.83;;;1.10;;
17451;SDS011;8843;48.838;9.324;2023-07-20T12:00:36;1.40;;;1.30;;
17451;SDS011;8843;48.838;9.324;2023-07-20T12:03:04;3.03;;;1.20;;
17451;SDS011;8843;48.838;9.324;2023-07-20T12:05:33;1.30;;;1.20;;
17451;SDS011;8843;48.838;9.324;2023-07-20T12:08:00;1.37;;;1.07;;
17451;SDS011;8843;48.838;9.324;2023-07-20T12:10:27;2.03;;;1.50;;
17451;SDS011;8843;48.838;9.324;2023-07-20T12:13:00;1.87;;;1.20;;
17451;SDS011;8843;48.838;9.324;2023-07-20T12:15:29;5.70;;;1.50;;
17451;SDS011;8843;48.838;9.324;2023-07-20T12:17:57;1.23;;;1.13;;
17451;SDS011;8843;48.838;9.324;2023-07-20T12:20:26;1.70;;;1.40;;
17451;SDS011;8843;48.838;9.324;2023-07-20T12:22:55;1.67;;;1.30;;
17451;SDS011;8843;48.838;9.324;2023-07-20T12:25:31;2.33;;;1.47;;
17451;SDS011;8843;48.838;9.324;2023-07-20T12:28:00;1.40;;;1.30;;
17451;SDS011;8843;48.838;9.324;2023-07-20T12:30:30;1.47;;;1.33;;
17451;SDS011;8843;48.838;9.324;2023-07-20T12:32:57;2.33;;;1.33;;
17451;SDS011;8843;48.838;9.324;2023-07-20T12:35:24;2.33;;;1.80;;
17451;SDS011;8843;48.838;9.324;2023-07-20T12:37:50;1.30;;;1.20;;
17451;SDS011;8843;48.838;9.324;2023-07-20T12:40:18;1.30;;;1.20;;
17451;SDS011;8843;48.838;9.324;2023-07-20T12:42:46;2.93;;;1.30;;
17451;SDS011;8843;48.838;9.324;2023-07-20T12:45:13;1.50;;;1.40;;
17451;SDS011;8843;48.838;9.324;2023-07-20T12:47:42;1.50;;;1.40;;
17451;SDS011;8843;48.838;9.324;2023-07-20T12:50:09;1.93;;;1.60;;
17451;SDS011;8843;48.838;9.324;2023-07-20T12:52:36;1.70;;;1.37;;
17451;SDS011;8843;48.838;9.324;2023-07-20T12:55:04;1.50;;;1.40;;
17451;SDS011;8843;48.838;9.324;2023-07-20T12:57:33;1.40;;;1.30;;
17451;SDS011;8843;48.838;9.324;2023-07-20T13:00:00;1.50;;;1.30;;
17451;SDS011;8843;48.838;9.324;2023-07-20T13:02:29;2.17;;;1.50;;
17451;SDS011;8843;48.838;9.324;2023-07-20T13:04:57;2.70;;;1.47;;
17451;SDS011;8843;48.838;9.324;2023-07-20T13:07:31;1.40;;;1.30;;
17451;SDS011;8843;48.838;9.324;2023-07-20T13:10:00;3.13;;;1.43;;
17451;SDS011;8843;48.838;9.324;2023-07-20T13:12:29;3.03;;;1.50;;
17451;SDS011;8843;48.838;9.324;2023-07-20T13:14:57;1.53;;;1.20;;
17451;SDS011;8843;48.838;9.324;2023-07-20T13:17:25;1.50;;;1.30;;
17451;SDS011;8843;48.838;9.324;2023-07-20T13:19:53;1.70;;;1.60;;
17451;SDS011;8843;48.838;9.324;2023-07-20T13:22:21;2.23;;;1.20;;
17451;SDS011;8843;48.838;9.324;2023-07-20T13:24:49;2.07;;;1.47;;
17451;SDS011;8843;48.838;9.324;2023-07-20T13:27:16;1.67;;;1.30;;
17451;SDS011;8843;48.838;9.324;2023-07-20T13:29:44;3.20;;;1.37;;
17451;SDS011;8843;48.838;9.324;2023-07-20T13:32:12;1.37;;;1.10;;
17451;SDS011;8843;48.838;9.324;2023-07-20T13:34:39;1.20;;;1.00;;
17451;SDS011;8843;48.838;9.324;2023-07-20T13:37:06;3.33;;;1.33;;
17451;SDS011;8843;48.838;9.324;2023-07-20T13:39:34;1.90;;;1.50;;
17451;SDS011;8843;48.838;9.324;2023-07-20T13:42:04;2.37;;;1.20;;
17451;SDS011;8843;48.838;9.324;2023-07-20T13:44:31;2.37;;;1.47;;
17451;SDS011;8843;48.838;9.324;2023-07-20T13:46:58;4.53;;;1.60;;
17451;SDS011;8843;48.838;9.324;2023-07-20T13:49:25;1.97;;;1.10;;
17451;SDS011;8843;48.838;9.324;2023-07-20T13:51:52;1.23;;;1.13;;
17451;SDS011;8843;48.838;9.324;2023-07-20T13:54:19;2.90;;;1.60;;
17451;SDS011;8843;48.838;9.324;2023-07-20T13:56:47;2.27;;;1.53;;
17451;SDS011;8843;48.838;9.324;2023-07-20T13:59:14;2.57;;;1.40;;
17451;SDS011;8843;48.838;9.324;2023-07-20T14:01:41;1.30;;;1.20;;
17451;SDS011;8843;48.838;9.324;2023-07-20T14:04:08;2.63;;;1.40;;
17451;SDS011;8843;48.838;9.324;2023-07-20T14:06:35;2.00;;;1.43;;
17451;SDS011;8843;48.838;9.324;2023-07-20T14:09:02;2.63;;;1.40;;
17451;SDS011;8843;48.838;9.324;2023-07-20T14:11:29;1.27;;;1.17;;
17451;SDS011;8843;48.838;9.324;2023-07-20T14:13:57;6.70;;;1.93;;
17451;SDS011;8843;48.838;9.324;2023-07-20T14:16:24;2.57;;;1.53;;
17451;SDS011;8843;48.838;9.324;2023-07-20T14:18:51;1.40;;;1.30;;
17451;SDS011;8843;48.838;9.324;2023-07-20T14:21:19;1.70;;;1.60;;
17451;SDS011;8843;48.838;9.324;2023-07-20T14:23:47;2.43;;;1.47;;
17451;SDS011;8843;48.838;9.324;2023-07-20T14:26:15;1.87;;;1.70;;
17451;SDS011;8843;48.838;9.324;2023-07-20T14:28:42;2.00;;;1.37;;
17451;SDS011;8843;48.838;9.324;2023-07-20T14:31:10;1.30;;;1.20;;
17451;SDS011;8843;48.838;9.324;2023-07-20T14:33:37;1.73;;;1.50;;
17451;SDS011;8843;48.838;9.324;2023-07-20T14:36:04;1.53;;;1.43;;
17451;SDS011;8843;48.838;9.324;2023-07-20T14:38:31;2.40;;;1.60;;
17451;SDS011;8843;48.838;9.324;2023-07-20T14:40:59;3.80;;;1.37;;
17451;SDS011;8843;48.838;9.324;2023-07-20T14:43:26;1.87;;;1.20;;
17451;SDS011;8843;48.838;9.324;2023-07-20T14:45:53;1.80;;;1.40;;
17451;SDS011;8843;48.838;9.324;2023-07-20T14:48:21;2.67;;;1.20;;
17451;SDS011;8843;48.838;9.324;2023-07-20T14:50:48;2.63;;;1.30;;
17451;SDS011;8843;48.838;9.324;2023-07-20T14:53:15;2.13;;;1.40;;
17451;SDS011;8843;48.838;9.324;2023-07-20T14:55:42;2.63;;;1.07;;
17451;SDS011;8843;48.838;9.324;2023-07-20T14:58:09;3.67;;;1.60;;
17451;SDS011;8843;48.838;9.324;2023-07-20T15:00:36;2.10;;;1.20;;
17451;SDS011;8843;48.838;9.324;2023-07-20T15:03:03;1.50;;;1.40;;
17451;SDS011;8843;48.838;9.324;2023-07-20T15:05:32;3.60;;;1.40;;